sensor_id;sensor_type;location;lat;lon;timestamp;P1;durP1;ratioP1;P2;durP2;ratioP2
48588;SDS011;34369;51.174;6.738;2022-10-16T00:00:18;26.27;;;24.40;;
48588;SDS011;34369;51.174;6.738;2022-10-16T00:02:52;26.40;;;24.60;;
48588;SDS011;34369;51.174;6.738;2022-10-16T00:05:24;26.15;;;24.25;;
48588;SDS011;34369;51.174;6.738;2022-10-16T00:07:58;27.48;;;24.95;;
48588;SDS011;34369;51.174;6.738;2022-10-16T00:10:32;25.98;;;24.17;;
48588;SDS011;34369;51.174;6.738;2022-10-16T00:13:05;25.52;;;23.73;;
48588;SDS011;34369;51.174;6.738;2022-10-16T00:15:38;25.80;;;23.98;;
48588;SDS011;34369;51.174;6.738;2022-10-16T00:18:14;27.17;;;25.17;;
48588;SDS011;34369;51.174;6.738;2022-10-16T00:20:46;26.38;;;24.58;;
48588;SDS011;34369;51.174;6.738;2022-10-16T00:23:18;26.60;;;24.67;;
48588;SDS011;34369;51.174;6.738;2022-10-16T00:25:54;25.60;;;23.73;;
48588;SDS011;34369;51.174;6.738;2022-10-16T00:28:27;26.80;;;24.90;;
48588;SDS011;34369;51.174;6.738;2022-10-16T00:31:02;27.02;;;24.98;;
48588;SDS011;34369;51.174;6.738;2022-10-16T00:33:37;26.65;;;24.80;;
48588;SDS011;34369;51.174;6.738;2022-10-16T00:36:13;27.50;;;25.50;;
48588;SDS011;34369;51.174;6.738;2022-10-16T00:38:49;25.95;;;24.15;;
48588;SDS011;34369;51.174;6.738;2022-10-16T00:41:24;27.35;;;25.17;;
48588;SDS011;34369;51.174;6.738;2022-10-16T00:43:58;25.63;;;23.75;;
48588;SDS011;34369;51.174;6.738;2022-10-16T00:46:33;25.95;;;24.05;;
48588;SDS011;34369;51.174;6.738;2022-10-16T00:49:10;25.98;;;24.15;;
48588;SDS011;34369;51.174;6.738;2022-10-16T00:51:47;25.73;;;24.02;;
48588;SDS011;34369;51.174;6.738;2022-10-16T00:54:22;25.95;;;24.05;;
48588;SDS011;34369;51.174;6.738;2022-10-16T00:56:58;26.53;;;24.80;;
48588;SDS011;34369;51.174;6.738;2022-10-16T00:59:34;26.50;;;24.23;;
48588;SDS011;34369;51.174;6.738;2022-10-16T01:02:10;27.38;;;25.40;;
48588;SDS011;34369;51.174;6.738;2022-10-16T01:04:47;25.35;;;23.55;;
48588;SDS011;34369;51.174;6.738;2022-10-16T01:07:26;26.23;;;24.27;;
48588;SDS011;34369;51.174;6.738;2022-10-16T01:12:51;26.20;;;24.40;;
48588;SDS011;34369;51.174;6.738;2022-10-16T01:15:31;26.70;;;24.80;;
48588;SDS011;34369;51.174;6.738;2022-10-16T01:18:14;25.80;;;24.08;;
48588;SDS011;34369;51.174;6.738;2022-10-16T01:20:53;26.15;;;24.35;;
48588;SDS011;34369;51.174;6.738;2022-10-16T01:23:34;26.08;;;24.17;;
48588;SDS011;34369;51.174;6.738;2022-10-16T01:26:31;27.35;;;25.42;;
48588;SDS011;34369;51.174;6.738;2022-10-16T01:29:32;27.15;;;25.33;;
48588;SDS011;34369;51.174;6.738;2022-10-16T01:32:10;26.58;;;24.77;;
48588;SDS011;34369;51.174;6.738;2022-10-16T01:34:50;25.58;;;23.77;;
48588;SDS011;34369;51.174;6.738;2022-10-16T01:37:29;25.88;;;24.08;;
48588;SDS011;34369;51.174;6.738;2022-10-16T01:40:08;27.38;;;25.42;;
48588;SDS011;34369;51.174;6.738;2022-10-16T01:42:42;26.73;;;24.90;;
48588;SDS011;34369;51.174;6.738;2022-10-16T01:45:21;25.80;;;23.60;;
48588;SDS011;34369;51.174;6.738;2022-10-16T01:47:53;24.63;;;22.90;;
48588;SDS011;34369;51.174;6.738;2022-10-16T01:50:26;26.48;;;24.48;;
48588;SDS011;34369;51.174;6.738;2022-10-16T01:52:58;25.58;;;23.70;;
48588;SDS011;34369;51.174;6.738;2022-10-16T01:55:33;25.10;;;23.30;;
48588;SDS011;34369;51.174;6.738;2022-10-16T01:58:11;25.95;;;24.13;;
48588;SDS011;34369;51.174;6.738;2022-10-16T02:00:46;25.30;;;23.50;;
48588;SDS011;34369;51.174;6.738;2022-10-16T02:03:19;25.05;;;23.27;;
48588;SDS011;34369;51.174;6.738;2022-10-16T02:05:52;26.92;;;24.88;;
48588;SDS011;34369;51.174;6.738;2022-10-16T02:08:27;25.70;;;23.85;;
48588;SDS011;34369;51.174;6.738;2022-10-16T02:11:01;24.95;;;23.25;;
48588;SDS011;34369;51.174;6.738;2022-10-16T02:13:35;25.80;;;23.65;;
48588;SDS011;34369;51.174;6.738;2022-10-16T02:16:16;24.90;;;23.20;;
48588;SDS011;34369;51.174;6.738;2022-10-16T02:18:48;25.20;;;23.40;;
48588;SDS011;34369;51.174;6.738;2022-10-16T02:21:22;25.48;;;23.73;;
48588;SDS011;34369;51.174;6.738;2022-10-16T02:23:59;25.30;;;23.60;;
48588;SDS011;34369;51.174;6.738;2022-10-16T02:26:36;25.05;;;23.35;;
48588;SDS011;34369;51.174;6.738;2022-10-16T02:29:14;25.10;;;23.30;;
48588;SDS011;34369;51.174;6.738;2022-10-16T02:31:55;25.15;;;23.35;;
48588;SDS011;34369;51.174;6.738;2022-10-16T02:34:32;25.77;;;24.05;;
48588;SDS011;34369;51.174;6.738;2022-10-16T02:37:05;24.27;;;22.50;;
48588;SDS011;34369;51.174;6.738;2022-10-16T02:39:37;24.67;;;22.88;;
48588;SDS011;34369;51.174;6.738;2022-10-16T02:42:11;24.58;;;22.90;;
48588;SDS011;34369;51.174;6.738;2022-10-16T02:44:44;25.92;;;23.95;;
48588;SDS011;34369;51.174;6.738;2022-10-16T02:47:17;24.92;;;23.13;;
48588;SDS011;34369;51.174;6.738;2022-10-16T02:49:49;25.70;;;23.90;;
48588;SDS011;34369;51.174;6.738;2022-10-16T02:52:21;26.00;;;24.10;;
48588;SDS011;34369;51.174;6.738;2022-10-16T02:54:53;24.77;;;23.08;;
48588;SDS011;34369;51.174;6.738;2022-10-16T02:57:26;24.88;;;23.10;;
48588;SDS011;34369;51.174;6.738;2022-10-16T02:59:58;25.40;;;23.70;;
48588;SDS011;34369;51.174;6.738;2022-10-16T03:02:31;24.63;;;23.00;;
48588;SDS011;34369;51.174;6.738;2022-10-16T03:05:03;24.05;;;22.45;;
48588;SDS011;34369;51.174;6.738;2022-10-16T03:07:36;23.70;;;22.10;;
48588;SDS011;34369;51.174;6.738;2022-10-16T03:10:08;25.67;;;23.88;;
48588;SDS011;34369;51.174;6.738;2022-10-16T03:12:40;25.50;;;23.80;;
48588;SDS011;34369;51.174;6.738;2022-10-16T03:15:12;25.95;;;23.98;;
48588;SDS011;34369;51.174;6.738;2022-10-16T03:17:46;26.42;;;24.63;;
48588;SDS011;34369;51.174;6.738;2022-10-16T03:20:17;25.23;;;23.52;;
48588;SDS011;34369;51.174;6.738;2022-10-16T03:22:49;25.38;;;23.58;;
48588;SDS011;34369;51.174;6.738;2022-10-16T03:25:21;25.60;;;23.90;;
48588;SDS011;34369;51.174;6.738;2022-10-16T03:27:53;25.02;;;23.30;;
48588;SDS011;34369;51.174;6.738;2022-10-16T03:30:25;25.30;;;23.55;;
48588;SDS011;34369;51.174;6.738;2022-10-16T03:32:59;24.88;;;23.17;;
48588;SDS011;34369;51.174;6.738;2022-10-16T03:35:31;25.20;;;23.50;;
48588;SDS011;34369;51.174;6.738;2022-10-16T03:38:03;26.02;;;23.92;;
48588;SDS011;34369;51.174;6.738;2022-10-16T03:40:35;24.67;;;23.05;;
48588;SDS011;34369;51.174;6.738;2022-10-16T03:43:07;25.25;;;23.55;;
48588;SDS011;34369;51.174;6.738;2022-10-16T03:45:39;24.92;;;23.13;;
48588;SDS011;34369;51.174;6.738;2022-10-16T03:48:12;25.20;;;23.50;;
48588;SDS011;34369;51.174;6.738;2022-10-16T03:50:44;25.30;;;23.60;;
48588;SDS011;34369;51.174;6.738;2022-10-16T03:53:18;25.27;;;23.58;;
48588;SDS011;34369;51.174;6.738;2022-10-16T03:55:53;25.02;;;23.17;;
48588;SDS011;34369;51.174;6.738;2022-10-16T03:58:25;25.00;;;23.30;;
48588;SDS011;34369;51.174;6.738;2022-10-16T04:00:56;25.60;;;23.75;;
48588;SDS011;34369;51.174;6.738;2022-10-16T04:03:30;26.08;;;24.00;;
48588;SDS011;34369;51.174;6.738;2022-10-16T04:06:02;25.98;;;24.27;;
48588;SDS011;34369;51.174;6.738;2022-10-16T04:08:34;25.95;;;24.05;;
48588;SDS011;34369;51.174;6.738;2022-10-16T04:11:06;25.55;;;23.85;;
48588;SDS011;34369;51.174;6.738;2022-10-16T04:13:38;25.05;;;23.08;;
48588;SDS011;34369;51.174;6.738;2022-10-16T04:16:11;27.43;;;25.60;;
48588;SDS011;34369;51.174;6.738;2022-10-16T04:18:45;25.15;;;23.45;;
48588;SDS011;34369;51.174;6.738;2022-10-16T04:21:17;25.20;;;23.50;;
48588;SDS011;34369;51.174;6.738;2022-10-16T04:23:49;25.65;;;23.95;;
48588;SDS011;34369;51.174;6.738;2022-10-16T04:26:21;25.00;;;23.30;;
48588;SDS011;34369;51.174;6.738;2022-10-16T04:28:54;26.20;;;24.40;;
48588;SDS011;34369;51.174;6.738;2022-10-16T04:31:26;25.35;;;23.65;;
48588;SDS011;34369;51.174;6.738;2022-10-16T04:33:59;25.33;;;23.63;;
48588;SDS011;34369;51.174;6.738;2022-10-16T04:36:31;25.70;;;24.00;;
48588;SDS011;34369;51.174;6.738;2022-10-16T04:39:03;26.70;;;25.00;;
48588;SDS011;34369;51.174;6.738;2022-10-16T04:41:35;26.20;;;24.50;;
48588;SDS011;34369;51.174;6.738;2022-10-16T04:44:07;26.00;;;24.10;;
48588;SDS011;34369;51.174;6.738;2022-10-16T04:46:39;26.00;;;24.30;;
48588;SDS011;34369;51.174;6.738;2022-10-16T04:49:12;26.40;;;24.50;;
48588;SDS011;34369;51.174;6.738;2022-10-16T04:51:44;26.20;;;24.30;;
48588;SDS011;34369;51.174;6.738;2022-10-16T04:54:16;25.63;;;23.93;;
48588;SDS011;34369;51.174;6.738;2022-10-16T04:56:48;26.00;;;24.20;;
48588;SDS011;34369;51.174;6.738;2022-10-16T04:59:23;26.17;;;24.47;;
48588;SDS011;34369;51.174;6.738;2022-10-16T05:01:55;26.80;;;25.00;;
48588;SDS011;34369;51.174;6.738;2022-10-16T05:04:28;25.80;;;24.10;;
48588;SDS011;34369;51.174;6.738;2022-10-16T05:07:00;25.98;;;24.27;;
48588;SDS011;34369;51.174;6.738;2022-10-16T05:09:33;25.37;;;23.47;;
48588;SDS011;34369;51.174;6.738;2022-10-16T05:12:05;25.77;;;24.07;;
48588;SDS011;34369;51.174;6.738;2022-10-16T05:14:37;26.73;;;24.92;;
48588;SDS011;34369;51.174;6.738;2022-10-16T05:17:09;26.33;;;24.50;;
48588;SDS011;34369;51.174;6.738;2022-10-16T05:19:43;26.97;;;25.07;;
48588;SDS011;34369;51.174;6.738;2022-10-16T05:22:15;26.10;;;24.40;;
48588;SDS011;34369;51.174;6.738;2022-10-16T05:24:47;26.47;;;24.53;;
48588;SDS011;34369;51.174;6.738;2022-10-16T05:27:19;26.53;;;24.80;;
48588;SDS011;34369;51.174;6.738;2022-10-16T05:29:51;26.20;;;24.40;;
48588;SDS011;34369;51.174;6.738;2022-10-16T05:32:23;26.90;;;25.07;;
48588;SDS011;34369;51.174;6.738;2022-10-16T05:34:57;26.47;;;24.63;;
48588;SDS011;34369;51.174;6.738;2022-10-16T05:37:29;26.10;;;24.40;;
48588;SDS011;34369;51.174;6.738;2022-10-16T05:40:02;26.58;;;24.77;;
48588;SDS011;34369;51.174;6.738;2022-10-16T05:42:34;25.52;;;23.83;;
48588;SDS011;34369;51.174;6.738;2022-10-16T05:45:08;26.20;;;24.23;;
48588;SDS011;34369;51.174;6.738;2022-10-16T05:47:41;25.85;;;24.05;;
48588;SDS011;34369;51.174;6.738;2022-10-16T05:50:15;26.00;;;24.30;;
48588;SDS011;34369;51.174;6.738;2022-10-16T05:52:47;25.80;;;24.10;;
48588;SDS011;34369;51.174;6.738;2022-10-16T05:55:19;26.10;;;24.33;;
48588;SDS011;34369;51.174;6.738;2022-10-16T05:57:53;26.30;;;24.42;;
48588;SDS011;34369;51.174;6.738;2022-10-16T06:00:28;25.90;;;24.20;;
48588;SDS011;34369;51.174;6.738;2022-10-16T06:03:01;25.43;;;23.73;;
48588;SDS011;34369;51.174;6.738;2022-10-16T06:05:36;25.98;;;24.27;;
48588;SDS011;34369;51.174;6.738;2022-10-16T06:08:08;26.13;;;24.33;;
48588;SDS011;34369;51.174;6.738;2022-10-16T06:10:40;25.00;;;23.30;;
48588;SDS011;34369;51.174;6.738;2022-10-16T06:13:14;25.67;;;23.98;;
48588;SDS011;34369;51.174;6.738;2022-10-16T06:15:47;25.90;;;24.20;;
48588;SDS011;34369;51.174;6.738;2022-10-16T06:18:19;26.27;;;24.48;;
48588;SDS011;34369;51.174;6.738;2022-10-16T06:20:53;24.70;;;22.88;;
48588;SDS011;34369;51.174;6.738;2022-10-16T06:23:28;27.10;;;25.20;;
48588;SDS011;34369;51.174;6.738;2022-10-16T06:26:04;26.42;;;24.73;;
48588;SDS011;34369;51.174;6.738;2022-10-16T06:28:38;25.30;;;23.50;;
48588;SDS011;34369;51.174;6.738;2022-10-16T06:31:11;25.42;;;23.73;;
48588;SDS011;34369;51.174;6.738;2022-10-16T06:33:45;27.33;;;25.45;;
48588;SDS011;34369;51.174;6.738;2022-10-16T06:36:23;25.23;;;23.52;;
48588;SDS011;34369;51.174;6.738;2022-10-16T06:38:55;25.02;;;23.33;;
48588;SDS011;34369;51.174;6.738;2022-10-16T06:41:28;25.30;;;23.50;;
48588;SDS011;34369;51.174;6.738;2022-10-16T06:44:06;24.83;;;23.23;;
48588;SDS011;34369;51.174;6.738;2022-10-16T06:46:38;25.10;;;23.40;;
48588;SDS011;34369;51.174;6.738;2022-10-16T06:49:10;25.65;;;23.95;;
48588;SDS011;34369;51.174;6.738;2022-10-16T06:51:44;25.48;;;23.77;;
48588;SDS011;34369;51.174;6.738;2022-10-16T06:54:16;26.25;;;24.55;;
48588;SDS011;34369;51.174;6.738;2022-10-16T06:56:48;25.42;;;23.70;;
48588;SDS011;34369;51.174;6.738;2022-10-16T06:59:24;25.70;;;24.00;;
48588;SDS011;34369;51.174;6.738;2022-10-16T07:01:57;25.35;;;23.55;;
48588;SDS011;34369;51.174;6.738;2022-10-16T07:04:29;25.35;;;23.52;;
48588;SDS011;34369;51.174;6.738;2022-10-16T07:07:02;25.42;;;23.63;;
48588;SDS011;34369;51.174;6.738;2022-10-16T07:09:35;25.30;;;23.60;;
48588;SDS011;34369;51.174;6.738;2022-10-16T07:12:07;24.95;;;23.25;;
48588;SDS011;34369;51.174;6.738;2022-10-16T07:14:39;25.27;;;23.48;;
48588;SDS011;34369;51.174;6.738;2022-10-16T07:17:11;25.13;;;23.42;;
48588;SDS011;34369;51.174;6.738;2022-10-16T07:19:44;25.25;;;23.55;;
48588;SDS011;34369;51.174;6.738;2022-10-16T07:22:17;25.80;;;24.00;;
48588;SDS011;34369;51.174;6.738;2022-10-16T07:24:49;25.35;;;23.65;;
48588;SDS011;34369;51.174;6.738;2022-10-16T07:27:22;25.80;;;24.10;;
48588;SDS011;34369;51.174;6.738;2022-10-16T07:29:54;25.13;;;23.33;;
48588;SDS011;34369;51.174;6.738;2022-10-16T07:32:26;25.20;;;23.50;;
48588;SDS011;34369;51.174;6.738;2022-10-16T07:34:58;24.85;;;23.15;;
48588;SDS011;34369;51.174;6.738;2022-10-16T07:37:32;25.70;;;23.90;;
48588;SDS011;34369;51.174;6.738;2022-10-16T07:40:04;25.17;;;23.48;;
48588;SDS011;34369;51.174;6.738;2022-10-16T07:42:38;25.15;;;23.40;;
48588;SDS011;34369;51.174;6.738;2022-10-16T07:45:10;25.60;;;23.83;;
48588;SDS011;34369;51.174;6.738;2022-10-16T07:47:43;25.60;;;23.80;;
48588;SDS011;34369;51.174;6.738;2022-10-16T07:50:15;25.27;;;23.40;;
48588;SDS011;34369;51.174;6.738;2022-10-16T07:52:50;25.25;;;23.50;;
48588;SDS011;34369;51.174;6.738;2022-10-16T07:55:23;25.02;;;23.23;;
48588;SDS011;34369;51.174;6.738;2022-10-16T07:57:55;24.10;;;22.27;;
48588;SDS011;34369;51.174;6.738;2022-10-16T08:00:28;24.27;;;22.58;;
48588;SDS011;34369;51.174;6.738;2022-10-16T08:03:00;24.55;;;22.77;;
48588;SDS011;34369;51.174;6.738;2022-10-16T08:05:33;24.13;;;22.30;;
48588;SDS011;34369;51.174;6.738;2022-10-16T08:08:10;23.92;;;22.23;;
48588;SDS011;34369;51.174;6.738;2022-10-16T08:10:47;23.98;;;22.17;;
48588;SDS011;34369;51.174;6.738;2022-10-16T08:13:20;23.27;;;21.63;;
48588;SDS011;34369;51.174;6.738;2022-10-16T08:15:53;23.30;;;21.60;;
48588;SDS011;34369;51.174;6.738;2022-10-16T08:18:25;22.83;;;21.13;;
48588;SDS011;34369;51.174;6.738;2022-10-16T08:20:58;22.50;;;20.80;;
48588;SDS011;34369;51.174;6.738;2022-10-16T08:23:32;22.80;;;21.10;;
48588;SDS011;34369;51.174;6.738;2022-10-16T08:26:06;22.75;;;21.15;;
48588;SDS011;34369;51.174;6.738;2022-10-16T08:28:40;21.73;;;20.13;;
48588;SDS011;34369;51.174;6.738;2022-10-16T08:31:13;22.33;;;20.73;;
48588;SDS011;34369;51.174;6.738;2022-10-16T08:33:46;21.67;;;19.98;;
48588;SDS011;34369;51.174;6.738;2022-10-16T08:36:19;22.60;;;21.00;;
48588;SDS011;34369;51.174;6.738;2022-10-16T08:38:52;21.73;;;19.92;;
48588;SDS011;34369;51.174;6.738;2022-10-16T08:44:35;21.80;;;20.10;;
48588;SDS011;34369;51.174;6.738;2022-10-16T08:47:43;20.90;;;19.30;;
48588;SDS011;34369;51.174;6.738;2022-10-16T08:50:22;20.10;;;18.50;;
48588;SDS011;34369;51.174;6.738;2022-10-16T08:52:57;20.30;;;18.80;;
48588;SDS011;34369;51.174;6.738;2022-10-16T08:55:37;19.95;;;18.00;;
48588;SDS011;34369;51.174;6.738;2022-10-16T08:58:15;19.70;;;18.10;;
48588;SDS011;34369;51.174;6.738;2022-10-16T09:00:50;19.20;;;17.73;;
48588;SDS011;34369;51.174;6.738;2022-10-16T09:03:40;18.85;;;17.20;;
48588;SDS011;34369;51.174;6.738;2022-10-16T09:06:26;18.15;;;16.63;;
48588;SDS011;34369;51.174;6.738;2022-10-16T09:09:18;18.25;;;16.85;;
48588;SDS011;34369;51.174;6.738;2022-10-16T09:12:18;18.25;;;16.83;;
48588;SDS011;34369;51.174;6.738;2022-10-16T09:15:01;18.23;;;16.83;;
48588;SDS011;34369;51.174;6.738;2022-10-16T09:17:46;17.52;;;15.90;;
48588;SDS011;34369;51.174;6.738;2022-10-16T09:20:28;17.27;;;15.80;;
48588;SDS011;34369;51.174;6.738;2022-10-16T09:23:12;17.10;;;15.80;;
48588;SDS011;34369;51.174;6.738;2022-10-16T09:25:48;17.40;;;15.80;;
48588;SDS011;34369;51.174;6.738;2022-10-16T09:28:23;16.55;;;15.15;;
48588;SDS011;34369;51.174;6.738;2022-10-16T09:30:55;16.27;;;14.88;;
48588;SDS011;34369;51.174;6.738;2022-10-16T09:33:28;17.27;;;15.70;;
48588;SDS011;34369;51.174;6.738;2022-10-16T09:36:05;17.35;;;15.85;;
48588;SDS011;34369;51.174;6.738;2022-10-16T09:38:37;17.40;;;15.90;;
48588;SDS011;34369;51.174;6.738;2022-10-16T09:41:13;17.75;;;16.35;;
48588;SDS011;34369;51.174;6.738;2022-10-16T09:43:51;17.45;;;16.00;;
48588;SDS011;34369;51.174;6.738;2022-10-16T09:46:27;17.92;;;16.40;;
48588;SDS011;34369;51.174;6.738;2022-10-16T09:49:01;18.48;;;16.98;;
48588;SDS011;34369;51.174;6.738;2022-10-16T09:51:47;18.48;;;17.00;;
48588;SDS011;34369;51.174;6.738;2022-10-16T09:54:19;19.10;;;17.50;;
48588;SDS011;34369;51.174;6.738;2022-10-16T09:57:03;18.33;;;16.83;;
48588;SDS011;34369;51.174;6.738;2022-10-16T09:59:46;18.27;;;16.60;;
48588;SDS011;34369;51.174;6.738;2022-10-16T10:02:26;18.80;;;17.30;;
48588;SDS011;34369;51.174;6.738;2022-10-16T10:05:02;18.00;;;16.40;;
48588;SDS011;34369;51.174;6.738;2022-10-16T10:07:42;17.58;;;16.17;;
48588;SDS011;34369;51.174;6.738;2022-10-16T10:10:19;17.90;;;16.40;;
48588;SDS011;34369;51.174;6.738;2022-10-16T10:13:02;17.30;;;15.90;;
48588;SDS011;34369;51.174;6.738;2022-10-16T10:15:41;18.00;;;16.50;;
48588;SDS011;34369;51.174;6.738;2022-10-16T10:18:36;17.55;;;16.08;;
48588;SDS011;34369;51.174;6.738;2022-10-16T10:21:12;18.80;;;17.30;;
48588;SDS011;34369;51.174;6.738;2022-10-16T10:23:54;18.40;;;17.00;;
48588;SDS011;34369;51.174;6.738;2022-10-16T10:26:28;18.60;;;17.00;;
48588;SDS011;34369;51.174;6.738;2022-10-16T10:29:02;18.90;;;17.40;;
48588;SDS011;34369;51.174;6.738;2022-10-16T10:31:42;19.10;;;17.50;;
48588;SDS011;34369;51.174;6.738;2022-10-16T10:34:25;18.92;;;17.42;;
48588;SDS011;34369;51.174;6.738;2022-10-16T10:37:14;19.25;;;17.75;;
48588;SDS011;34369;51.174;6.738;2022-10-16T10:40:03;19.85;;;18.25;;
48588;SDS011;34369;51.174;6.738;2022-10-16T10:42:51;19.15;;;17.75;;
48588;SDS011;34369;51.174;6.738;2022-10-16T10:45:34;19.50;;;18.00;;
48588;SDS011;34369;51.174;6.738;2022-10-16T10:48:24;18.95;;;17.45;;
48588;SDS011;34369;51.174;6.738;2022-10-16T10:51:19;19.20;;;17.70;;
48588;SDS011;34369;51.174;6.738;2022-10-16T10:54:02;19.25;;;17.75;;
48588;SDS011;34369;51.174;6.738;2022-10-16T10:59:33;19.10;;;17.60;;
48588;SDS011;34369;51.174;6.738;2022-10-16T11:02:22;19.08;;;17.48;;
48588;SDS011;34369;51.174;6.738;2022-10-16T11:05:10;18.00;;;16.50;;
48588;SDS011;34369;51.174;6.738;2022-10-16T11:07:55;18.30;;;16.80;;
48588;SDS011;34369;51.174;6.738;2022-10-16T11:10:33;18.10;;;16.63;;
48588;SDS011;34369;51.174;6.738;2022-10-16T11:13:19;18.10;;;16.58;;
48588;SDS011;34369;51.174;6.738;2022-10-16T11:16:02;17.52;;;16.02;;
48588;SDS011;34369;51.174;6.738;2022-10-16T11:18:44;17.48;;;16.08;;
48588;SDS011;34369;51.174;6.738;2022-10-16T11:21:24;17.17;;;15.88;;
48588;SDS011;34369;51.174;6.738;2022-10-16T11:23:58;18.00;;;16.50;;
48588;SDS011;34369;51.174;6.738;2022-10-16T11:26:39;17.23;;;15.82;;
48588;SDS011;34369;51.174;6.738;2022-10-16T11:29:15;17.08;;;15.68;;
48588;SDS011;34369;51.174;6.738;2022-10-16T11:31:55;17.95;;;16.15;;
48588;SDS011;34369;51.174;6.738;2022-10-16T11:34:34;17.70;;;16.23;;
48588;SDS011;34369;51.174;6.738;2022-10-16T11:37:16;18.08;;;16.48;;
48588;SDS011;34369;51.174;6.738;2022-10-16T11:39:52;17.52;;;16.13;;
48588;SDS011;34369;51.174;6.738;2022-10-16T11:42:32;18.40;;;16.90;;
48588;SDS011;34369;51.174;6.738;2022-10-16T11:45:12;18.50;;;17.10;;
48588;SDS011;34369;51.174;6.738;2022-10-16T11:48:00;18.13;;;16.52;;
48588;SDS011;34369;51.174;6.738;2022-10-16T11:50:40;18.38;;;16.88;;
48588;SDS011;34369;51.174;6.738;2022-10-16T11:53:23;17.15;;;15.75;;
48588;SDS011;34369;51.174;6.738;2022-10-16T11:56:11;17.63;;;16.20;;
48588;SDS011;34369;51.174;6.738;2022-10-16T11:58:49;17.90;;;16.40;;
48588;SDS011;34369;51.174;6.738;2022-10-16T12:01:28;17.38;;;15.85;;
48588;SDS011;34369;51.174;6.738;2022-10-16T12:04:14;16.77;;;15.27;;
48588;SDS011;34369;51.174;6.738;2022-10-16T12:06:53;17.10;;;15.60;;
48588;SDS011;34369;51.174;6.738;2022-10-16T12:09:31;17.40;;;15.80;;
48588;SDS011;34369;51.174;6.738;2022-10-16T12:15:00;16.92;;;15.52;;
48588;SDS011;34369;51.174;6.738;2022-10-16T12:17:46;17.13;;;15.52;;
48588;SDS011;34369;51.174;6.738;2022-10-16T12:20:20;17.05;;;15.57;;
48588;SDS011;34369;51.174;6.738;2022-10-16T12:23:00;16.75;;;15.35;;
48588;SDS011;34369;51.174;6.738;2022-10-16T12:25:37;16.83;;;15.30;;
48588;SDS011;34369;51.174;6.738;2022-10-16T12:28:17;15.65;;;14.35;;
48588;SDS011;34369;51.174;6.738;2022-10-16T12:30:53;15.52;;;14.18;;
48588;SDS011;34369;51.174;6.738;2022-10-16T12:33:29;15.77;;;14.00;;
48588;SDS011;34369;51.174;6.738;2022-10-16T12:36:03;15.30;;;14.00;;
48588;SDS011;34369;51.174;6.738;2022-10-16T12:38:45;15.82;;;14.43;;
48588;SDS011;34369;51.174;6.738;2022-10-16T12:41:25;15.05;;;13.75;;
48588;SDS011;34369;51.174;6.738;2022-10-16T12:43:59;15.00;;;13.70;;
48588;SDS011;34369;51.174;6.738;2022-10-16T12:46:37;15.55;;;14.20;;
48588;SDS011;34369;51.174;6.738;2022-10-16T12:49:28;15.73;;;14.05;;
48588;SDS011;34369;51.174;6.738;2022-10-16T12:52:03;15.90;;;14.50;;
48588;SDS011;34369;51.174;6.738;2022-10-16T12:54:37;15.90;;;14.50;;
48588;SDS011;34369;51.174;6.738;2022-10-16T12:57:27;16.30;;;14.90;;
48588;SDS011;34369;51.174;6.738;2022-10-16T13:00:13;16.50;;;15.10;;
48588;SDS011;34369;51.174;6.738;2022-10-16T13:03:04;16.80;;;15.18;;
48588;SDS011;34369;51.174;6.738;2022-10-16T13:06:19;16.92;;;15.45;;
48588;SDS011;34369;51.174;6.738;2022-10-16T13:09:04;17.08;;;15.68;;
48588;SDS011;34369;51.174;6.738;2022-10-16T13:15:05;16.25;;;14.85;;
48588;SDS011;34369;51.174;6.738;2022-10-16T13:18:09;16.02;;;14.63;;
48588;SDS011;34369;51.174;6.738;2022-10-16T13:20:52;14.73;;;13.43;;
48588;SDS011;34369;51.174;6.738;2022-10-16T13:23:37;15.05;;;13.75;;
48588;SDS011;34369;51.174;6.738;2022-10-16T13:26:22;14.60;;;13.30;;
48588;SDS011;34369;51.174;6.738;2022-10-16T13:29:04;14.07;;;12.77;;
48588;SDS011;34369;51.174;6.738;2022-10-16T13:31:36;14.65;;;13.20;;
48588;SDS011;34369;51.174;6.738;2022-10-16T13:34:11;13.82;;;12.52;;
48588;SDS011;34369;51.174;6.738;2022-10-16T13:36:48;14.10;;;12.80;;
48588;SDS011;34369;51.174;6.738;2022-10-16T13:42:00;13.57;;;12.30;;
48588;SDS011;34369;51.174;6.738;2022-10-16T13:44:38;13.98;;;12.68;;
48588;SDS011;34369;51.174;6.738;2022-10-16T13:47:15;13.60;;;12.40;;
48588;SDS011;34369;51.174;6.738;2022-10-16T13:50:01;14.30;;;13.00;;
48588;SDS011;34369;51.174;6.738;2022-10-16T13:52:36;14.90;;;13.40;;
48588;SDS011;34369;51.174;6.738;2022-10-16T13:55:10;14.15;;;12.95;;
48588;SDS011;34369;51.174;6.738;2022-10-16T13:57:43;14.90;;;13.50;;
48588;SDS011;34369;51.174;6.738;2022-10-16T14:00:22;15.50;;;14.10;;
48588;SDS011;34369;51.174;6.738;2022-10-16T14:03:00;15.73;;;14.43;;
48588;SDS011;34369;51.174;6.738;2022-10-16T14:05:35;15.95;;;14.65;;
48588;SDS011;34369;51.174;6.738;2022-10-16T14:08:09;15.80;;;14.40;;
48588;SDS011;34369;51.174;6.738;2022-10-16T14:10:46;16.50;;;14.93;;
48588;SDS011;34369;51.174;6.738;2022-10-16T14:13:23;16.60;;;15.18;;
48588;SDS011;34369;51.174;6.738;2022-10-16T14:16:04;16.90;;;15.50;;
48588;SDS011;34369;51.174;6.738;2022-10-16T14:18:40;16.85;;;15.45;;
48588;SDS011;34369;51.174;6.738;2022-10-16T14:21:12;17.08;;;15.68;;
48588;SDS011;34369;51.174;6.738;2022-10-16T14:23:47;16.85;;;15.45;;
48588;SDS011;34369;51.174;6.738;2022-10-16T14:26:20;18.10;;;16.50;;
48588;SDS011;34369;51.174;6.738;2022-10-16T14:29:08;17.80;;;16.30;;
48588;SDS011;34369;51.174;6.738;2022-10-16T14:31:54;18.13;;;16.63;;
48588;SDS011;34369;51.174;6.738;2022-10-16T14:34:29;18.20;;;16.80;;
48588;SDS011;34369;51.174;6.738;2022-10-16T14:37:08;18.08;;;16.58;;
48588;SDS011;34369;51.174;6.738;2022-10-16T14:39:49;18.20;;;16.63;;
48588;SDS011;34369;51.174;6.738;2022-10-16T14:42:23;18.58;;;16.98;;
48588;SDS011;34369;51.174;6.738;2022-10-16T14:44:56;18.05;;;16.65;;
48588;SDS011;34369;51.174;6.738;2022-10-16T14:47:30;18.60;;;17.05;;
48588;SDS011;34369;51.174;6.738;2022-10-16T14:50:03;18.40;;;16.90;;
48588;SDS011;34369;51.174;6.738;2022-10-16T14:55:10;18.92;;;17.17;;
48588;SDS011;34369;51.174;6.738;2022-10-16T14:57:43;19.05;;;17.55;;
48588;SDS011;34369;51.174;6.738;2022-10-16T15:00:18;19.27;;;17.75;;
48588;SDS011;34369;51.174;6.738;2022-10-16T15:02:56;19.65;;;18.05;;
48588;SDS011;34369;51.174;6.738;2022-10-16T15:05:28;19.52;;;17.90;;
48588;SDS011;34369;51.174;6.738;2022-10-16T15:08:02;19.85;;;18.35;;
48588;SDS011;34369;51.174;6.738;2022-10-16T15:10:37;18.90;;;17.50;;
48588;SDS011;34369;51.174;6.738;2022-10-16T15:13:12;19.40;;;17.90;;
48588;SDS011;34369;51.174;6.738;2022-10-16T15:15:45;19.90;;;18.20;;
48588;SDS011;34369;51.174;6.738;2022-10-16T15:18:21;19.02;;;17.42;;
48588;SDS011;34369;51.174;6.738;2022-10-16T15:20:53;19.52;;;17.98;;
48588;SDS011;34369;51.174;6.738;2022-10-16T15:23:25;19.75;;;18.10;;
48588;SDS011;34369;51.174;6.738;2022-10-16T15:25:57;19.55;;;18.02;;
48588;SDS011;34369;51.174;6.738;2022-10-16T15:28:29;19.50;;;18.00;;
48588;SDS011;34369;51.174;6.738;2022-10-16T15:31:01;19.50;;;17.90;;
48588;SDS011;34369;51.174;6.738;2022-10-16T15:33:37;19.88;;;18.38;;